• Join FlightAware (Why Join?)
  • Login
  • US Flag 
06:24PM EDT


 

Airport Tracker/Info


-or-


 

Live Flight TrackerFlight Track Log ✈ UAL495 ✈ 25-Jul-2013 ✈ KLAX - KDEN

Flight Track Log - Related Links

Times and Time Zones

All times are in EDT time to prevent confusion due to time zone crossing. See the UAL495 flight status page for this flight to view local times or setup timezone preferences in your user account.

Time Position Orientation Groundspeed Altitude Reporting Facility
EDT Latitude Longitude Course Direction KTS MPH feet Rate Location/Type
10:05AM 33.9333 -118.4333 90° East 181 208 1,700  Level Southern California TRACON
10:06AM 33.8778 -118.5311 236° Southwest 239 275 5,200 2,580 Climbing Los Angeles Center
10:07AM 33.7721 -118.6294 132° Southeast  Level FlightAware Approximate
10:07AM 33.8014 -118.5386 185° South 282 325 8,200  Level Los Angeles Center
10:08AM 33.6886 -118.5233 134° Southeast  Level FlightAware Approximate
10:08AM 33.7233 -118.5275 173° South 287 330 10,800  Level Los Angeles Center
10:09AM 33.6541 -118.3853 116° Southeast  Level FlightAware Approximate
10:09AM 33.6725 -118.4497 128° Southeast 330 380 13,100  Level Los Angeles Center
10:10AM 33.6333 -118.2451 90° East  Level FlightAware Approximate
10:10AM 33.6981 -118.3403 74° East 349 402 14,800  Level Los Angeles Center
10:11AM 33.7406 -118.2000 70° East 385 443 17,600 2,340 Climbing Los Angeles Center
10:12AM 33.7775 -118.0792 70° East 388 447 19,600 1,800 Climbing Los Angeles Center
10:13AM 33.8594 -117.9850 44° Northeast 414 476 21,400 1,740 Climbing Los Angeles Center
10:15AM 33.9536 -117.9003 37° Northeast 423 487 23,200 1,560 Climbing Los Angeles Center
10:16AM 34.0511 -117.8122 37° Northeast 434 499 24,700 1,560 Climbing Los Angeles Center
10:17AM 34.1581 -117.6839 45° Northeast 454 522 26,500 1,560 Climbing Los Angeles Center
10:18AM 34.2442 -117.5681 48° Northeast 461 531 28,000 1,260 Climbing Los Angeles Center
10:19AM 34.3314 -117.4483 49° Northeast 474 545 29,200 1,140 Climbing Los Angeles Center
10:20AM 34.4250 -117.3197 49° Northeast 487 560 30,400 1,320 Climbing Los Angeles Center
10:21AM 34.5153 -117.1944 49° Northeast 496 571 32,000 1,560 Climbing Los Angeles Center
10:22AM 34.6056 -117.0706 48° Northeast 495 570 33,700 1,380 Climbing Los Angeles Center
10:23AM 34.6947 -116.9467 49° Northeast 492 566 34,900 1,320 Climbing Los Angeles Center
10:24AM 34.8022 -116.7969 49° Northeast 493 567 36,500 1,320 Climbing Los Angeles Center
10:25AM 34.8917 -116.6744 48° Northeast 487 560 37,700 960 Climbing Los Angeles Center
10:26AM 34.9831 -116.5492 48° Northeast 494 568 38,500 600 Climbing Los Angeles Center
10:27AM 35.0781 -116.4292 46° Northeast 496 571 39,000 240 Climbing Los Angeles Center
10:28AM 35.1744 -116.3117 45° Northeast 493 567 39,000  Level Los Angeles Center
10:29AM 35.2878 -116.1667 46° Northeast 494 568 39,000  Level Los Angeles Center
10:30AM 35.3839 -116.0447 46° Northeast 498 573 39,000  Level Los Angeles Center
10:31AM 35.4794 -115.9228 46° Northeast 497 572 39,000  Level Los Angeles Center
10:32AM 35.5825 -115.7975 45° Northeast 492 566 39,000  Level Los Angeles Center
10:33AM 35.6667 -115.6644 52° Northeast 495 570 39,000  Level Los Angeles Center
10:34AM 35.7222 -115.5089 66° East 500 575 39,000  Level Los Angeles Center
10:35AM 35.7742 -115.3539 68° East 495 570 39,000  Level Los Angeles Center
10:36AM 35.8344 -115.1686 68° East 486 559 39,000  Level Los Angeles Center
10:37AM 35.8858 -115.0153 67° East 485 558 39,000  Level Los Angeles Center
10:38AM 35.9406 -114.8617 66° East 490 564 39,000  Level Los Angeles Center
10:39AM 35.9933 -114.7092 67° East 487 560 39,000  Level Los Angeles Center
10:40AM 36.0469 -114.5558 67° East 487 560 39,000  Level Los Angeles Center
10:41AM 36.1103 -114.3717 67° East 486 559 39,000  Level Los Angeles Center
10:42AM 36.1631 -114.2183 67° East 486 559 39,000  Level Los Angeles Center
10:43AM 36.2156 -114.0644 67° East 486 559 39,000  Level Los Angeles Center
10:44AM 36.2678 -113.9111 67° East 484 557 39,000  Level Los Angeles Center
10:45AM 36.3186 -113.7561 68° East 485 558 39,000  Level Los Angeles Center
10:47AM 36.3714 -113.6017 67° East 486 559 39,000  Level Los Angeles Center
10:48AM 36.4225 -113.4472 68° East 485 558 39,000  Level Los Angeles Center
10:49AM 36.4842 -113.2608 68° East 486 559 39,000  Level Los Angeles Center
10:50AM 36.5319 -113.1128 68° East 487 560 39,000  Level Los Angeles Center
10:51AM 36.5833 -112.9569 68° East 488 562 39,000  Level Los Angeles Center
10:52AM 36.6344 -112.8006 68° East 490 564 39,000  Level Los Angeles Center
10:53AM 36.6947 -112.6125 68° East 490 564 39,000  Level Los Angeles Center
10:54AM 36.7436 -112.4658 67° East 491 565 39,000  Level Los Angeles Center
10:55AM 36.7953 -112.2994 69° East 489 563 39,000  Level Los Angeles Center
10:56AM 36.8453 -112.1422 68° East 490 564 39,000  Level Los Angeles Center
10:58AM 36.9453 -111.8269 68° East 490 564 39,000  Level Los Angeles Center
10:59AM 37.0044 -111.6378 69° East 489 563 39,000  Level Los Angeles Center
11:00AM 37.0542 -111.4786 69° East 493 567 39,000  Level Los Angeles Center
11:01AM 37.1033 -111.3192 69° East 493 567 39,000  Level Los Angeles Center
11:02AM 37.1533 -111.1597 68° East 493 567 39,000  Level Los Angeles Center
11:03AM 37.2194 -110.9353 70° East 495 570 39,000  Level Denver Center
11:04AM 37.2692 -110.7739 69° East 498 573 39,000  Level Denver Center
11:05AM 37.3178 -110.6142 69° East 492 566 39,000  Level Denver Center
11:07AM 37.3772 -110.4203 69° East 496 571 39,000  Level Denver Center
11:08AM 37.4256 -110.2586 69° East 495 570 39,000  Level Denver Center
11:09AM 37.4719 -110.1033 69° East 497 572 39,000  Level Denver Center
11:10AM 37.5258 -109.9208 70° East 498 573 39,000  Level Denver Center
11:11AM 37.5719 -109.7644 70° East 498 573 39,000  Level Denver Center
11:12AM 37.6239 -109.5811 70° East 496 571 39,000  Level Denver Center
11:13AM 37.6694 -109.4233 70° East 498 573 39,000  Level Denver Center
11:14AM 37.7228 -109.2394 70° East 499 574 39,000  Level Denver Center
11:15AM 37.7675 -109.0814 70° East 497 572 39,000  Level Denver Center
11:16AM 37.8264 -108.9011 67° East 496 571 39,000  Level Denver Center
11:17AM 37.8939 -108.7575 59° Northeast 493 567 39,000  Level Denver Center
11:18AM 37.9639 -108.6164 58° Northeast 493 567 39,000  Level Denver Center
11:19AM 38.0433 -108.4528 58° Northeast 489 563 39,000  Level Denver Center
11:20AM 38.1208 -108.2903 59° Northeast 497 572 39,000  Level Denver Center
11:21AM 38.1897 -108.1483 58° Northeast 495 570 39,000  Level Denver Center
11:22AM 38.2231 -107.9567 77° East 500 575 39,000  Level Denver Center
11:23AM 38.2258 -107.7847 89° East 509 586 39,000 -120 Level Denver Center
11:24AM 38.2289 -107.5836 89° East 510 587 38,800 -660 Descending Denver Center
11:25AM 38.2300 -107.4114 89° East 509 586 37,700 -1,140 Descending Denver Center
11:26AM 38.2328 -107.2122 89° East 507 583 36,500 -1,680 Descending Denver Center
11:27AM 38.2342 -107.0411 89° East 497 572 34,300 -2,220 Descending Denver Center
11:28AM 38.2833 -106.8786 69° East 503 579 32,000 -1,920 Descending Denver Center
11:29AM 38.3672 -106.7447 51° Northeast 487 560 30,400 -1,620 Descending Denver Center
11:30AM 38.4517 -106.6100 51° Northeast 488 562 28,700 -1,500 Descending Denver Center
11:31AM 38.5358 -106.4747 51° Northeast 487 560 27,400 -840 Descending Denver Center
11:32AM 38.6344 -106.3167 51° Northeast 475 547 27,000 -240 Descending Denver Center
11:33AM 38.7131 -106.1900 51° Northeast 459 528 27,000  Level Denver Center
11:34AM 38.7853 -106.0733 52° Northeast 456 525 27,000  Level Denver Center
11:35AM 38.8806 -105.9211 51° Northeast 455 524 27,000 -480 Level Denver Center
11:37AM 38.9536 -105.8025 52° Northeast 451 519 26,100 -1,560 Descending Denver Center
11:38AM 39.0386 -105.6631 52° Northeast 446 513 23,800 -2,100 Descending Denver Center
11:39AM 39.1069 -105.5503 52° Northeast 421 484 21,800 -2,100 Descending Denver Center
11:40AM 39.1872 -105.4244 51° Northeast 417 480 19,500 -1,500 Descending Denver Center
11:41AM 39.2469 -105.3175 54° Northeast 364 419 18,800 -1,020 Descending Denver Center
11:42AM 39.2769 -105.2058 71° East 341 392 17,400 -1,560 Descending Denver Center
11:43AM 39.3008 -105.0778 76° East 341 392 15,600 -1,560 Descending Denver Center
11:44AM 39.3244 -104.9578 76° East 346 398 14,200 -960 Descending Denver Center
11:45AM 39.3522 -104.8456 72° East 308 354 13,700 -1,020 Descending Denver Center
11:46AM 39.4067 -104.7867 40° Northeast 262 302 12,100 -1,500 Descending Denver Center
11:47AM 39.4683 -104.7325 34° Northeast 254 292 10,700 -1,020 Descending Denver Center
11:48AM 39.5286 -104.6992 23° Northeast 240 276 10,000 -360 Descending Denver Center
11:49AM 39.5986 -104.6889 North 235 270 10,000 -420 Level Denver Center
11:50AM 39.6619 -104.6897 359° North 228 262 9,200 -780 Descending Denver Center